.
WxDataArchive / Data Records for 2009-11-27
2009-11-26 November 2009 2009-11-28

Data Records for Friday, 27 November 2009

Time	Temp	Chill	HIndex	Humid	Dewpt	 Wind 	HiWind	WindDir	Rain 	Barom 
-----	----	-----	------	-----	-----	------	------	-------	-----	----- 
00:00	36.8	36.8	36.8	89	33.9	3	9	248	0.00	29.882 
00:05	36.6	36.6	36.6	89	33.7	2	6	270	0.00	29.882 
00:10	36.3	33.0	36.3	89	33.4	4	11	270	0.00	29.882 
00:15	36.2	36.2	36.2	90	33.6	3	7	270	0.00	29.885 
00:20	36.0	36.0	36.0	90	33.4	3	7	270	0.00	29.885 
00:25	35.8	32.5	35.8	90	33.2	4	11	270	0.00	29.885 
00:30	35.8	35.8	35.8	91	33.4	3	9	270	0.00	29.883 
00:35	35.6	35.6	35.6	91	33.2	3	5	270	0.00	29.883 
00:40	35.5	35.5	35.5	91	33.1	3	6	248	0.00	29.883 
00:45	35.3	35.3	35.3	91	32.9	3	4	270	0.00	29.884 
00:50	35.3	35.3	35.3	91	32.9	3	11	248	0.00	29.884 
00:55	35.2	35.2	35.2	91	32.8	2	5	270	0.00	29.884 
01:00	35.0	35.0	35.0	91	32.6	3	7	248	0.00	29.886 
01:05	35.0	35.0	35.0	92	32.9	2	5	270	0.00	29.886 
01:10	35.0	35.0	35.0	92	32.9	3	6	270	0.00	29.886 
01:15	35.0	35.0	35.0	92	32.9	2	5	270	0.00	29.886 
01:20	35.0	35.0	35.0	92	32.9	2	5	270	0.00	29.886 
01:25	35.0	35.0	35.0	92	32.9	2	4	270	0.00	29.886 
01:30	35.0	35.0	35.0	92	32.9	3	6	270	0.00	29.877 
01:35	35.0	35.0	35.0	92	32.9	2	6	270	0.00	29.877 
01:40	34.9	34.9	34.9	92	32.8	2	5	270	0.00	29.877 
01:45	34.7	34.7	34.7	92	32.6	3	7	270	0.01	29.879 
01:50	34.7	34.7	34.7	92	32.6	2	5	270	0.00	29.879 
01:55	34.6	34.6	34.6	92	32.5	3	6	270	0.00	29.879 
02:00	34.4	34.4	34.4	92	32.3	3	7	270	0.00	29.886 
02:05	34.4	34.4	34.4	91	32.0	3	9	270	0.00	29.886 
02:10	34.3	30.7	34.3	91	32.0	4	7	270	0.00	29.886 
02:15	34.0	34.0	34.0	91	31.7	3	6	270	0.00	29.882 
02:20	33.8	33.8	33.8	91	31.5	3	6	248	0.00	29.882 
02:25	33.8	33.8	33.8	91	31.5	2	5	248	0.00	29.882 
02:30	33.7	33.7	33.7	91	31.4	2	7	270	0.00	29.884 
02:35	33.7	33.7	33.7	91	31.4	2	5	270	0.00	29.884 
02:40	33.7	33.7	33.7	91	31.4	3	7	270	0.00	29.884 
02:45	33.5	33.5	33.5	91	31.2	2	4	248	0.00	29.889 
02:50	33.5	33.5	33.5	91	31.2	2	4	270	0.00	29.889 
02:55	33.4	33.4	33.4	91	31.1	3	6	270	0.00	29.889 
03:00	33.2	33.2	33.2	95	31.9	3	5	270	0.00	29.898 
03:05	33.2	33.2	33.2	91	30.9	2	5	270	0.00	29.898 
03:10	33.2	33.2	33.2	91	30.9	2	4	270	0.00	29.898 
03:15	33.2	33.2	33.2	91	30.9	3	7	248	0.00	29.893 
03:20	33.2	33.2	33.2	90	30.6	2	7	270	0.00	29.893 
03:25	33.2	33.2	33.2	90	30.6	2	8	270	0.00	29.893 
03:30	33.2	33.2	33.2	90	30.6	2	5	248	0.00	29.891 
03:35	33.1	33.1	33.1	90	30.5	3	6	270	0.00	29.891 
03:40	33.1	33.1	33.1	89	30.2	3	8	270	0.00	29.891 
03:45	33.1	33.1	33.1	89	30.2	2	5	270	0.00	29.893 
03:50	33.2	33.2	33.2	89	30.3	2	4	248	0.00	29.893 
03:55	33.2	33.2	33.2	88	30.0	3	7	248	0.00	29.893 
04:00	33.2	33.2	33.2	88	30.0	2	5	270	0.00	29.893 
04:05	33.2	33.2	33.2	88	30.0	2	3	270	0.00	29.893 
04:10	33.2	33.2	33.2	88	30.0	2	4	225	0.00	29.893 
04:15	33.2	33.2	33.2	87	29.8	2	4	270	0.00	29.903 
04:20	33.2	33.2	33.2	86	29.5	2	6	270	0.00	29.903 
04:25	33.2	33.2	33.2	86	29.5	2	4	292	0.00	29.903 
04:30	33.2	33.2	33.2	85	29.2	3	5	248	0.00	29.903 
04:35	33.2	33.2	33.2	84	28.9	2	6	270	0.00	29.903 
04:40	33.2	33.2	33.2	84	28.9	2	4	270	0.00	29.903 
04:45	33.2	33.2	33.2	84	28.9	2	6	248	0.00	29.902 
04:50	33.2	33.2	33.2	84	28.9	2	3	248	0.00	29.902 
04:55	33.2	33.2	33.2	84	28.9	2	6	292	0.00	29.902 
05:00	33.1	33.1	33.1	84	28.8	3	5	270	0.00	29.904 
05:05	33.1	33.1	33.1	84	28.8	2	4	270	0.00	29.904 
05:10	33.1	33.1	33.1	83	28.5	3	7	248	0.00	29.904 
05:15	33.1	33.1	33.1	83	28.5	2	6	248	0.00	29.906 
05:20	33.1	33.1	33.1	82	28.2	2	6	270	0.00	29.906 
05:25	33.1	33.1	33.1	82	28.2	2	6	270	0.00	29.906 
05:30	33.1	33.1	33.1	82	28.2	2	5	270	0.00	29.907 
05:35	33.1	33.1	33.1	81	27.9	2	5	270	0.00	29.907 
05:40	33.1	33.1	33.1	82	28.2	2	5	270	0.00	29.907 
05:45	33.1	33.1	33.1	82	28.2	2	5	270	0.00	29.907 
05:50	33.1	33.1	33.1	81	27.9	3	6	248	0.00	29.907 
05:55	33.1	33.1	33.1	81	27.9	2	5	248	0.00	29.907 
06:00	33.1	33.1	33.1	81	27.9	3	7	292	0.00	29.908 
06:05	33.1	33.1	33.1	81	27.9	3	5	270	0.00	29.908 
06:10	33.1	33.1	33.1	81	27.9	2	4	270	0.00	29.908 
06:15	33.1	33.1	33.1	81	27.9	1	4	248	0.00	29.909 
06:20	32.9	32.9	32.9	81	27.7	3	9	270	0.00	29.909 
06:25	32.9	32.9	32.9	81	27.7	2	5	248	0.00	29.909 
06:30	32.8	32.8	32.8	80	27.3	2	6	248	0.00	29.915 
06:35	32.7	32.7	32.7	80	27.2	2	6	225	0.00	29.915 
06:40	32.5	32.5	32.5	81	27.3	1	4	270	0.00	29.915 
06:45	32.4	32.4	32.4	81	27.2	1	5	270	0.00	29.919 
06:50	32.2	32.2	32.2	81	27.0	1	3	248	0.00	29.919 
06:55	32.2	32.2	32.2	81	27.0	1	4	270	0.00	29.919 
07:00	32.2	32.2	32.2	81	27.0	1	4	270	0.00	29.923 
07:05	32.2	32.2	32.2	81	27.0	2	5	270	0.00	29.923 
07:10	32.2	32.2	32.2	81	27.0	1	3	270	0.00	29.923 
07:15	32.4	32.4	32.4	81	27.2	2	6	248	0.00	29.927 
07:20	32.4	32.4	32.4	81	27.2	1	4	248	0.00	29.927 
07:25	32.4	32.4	32.4	80	26.9	1	3	248	0.00	29.927 
07:30	32.4	32.4	32.4	80	26.9	1	4	248	0.00	29.932 
07:35	32.5	32.5	32.5	79	26.7	1	4	270	0.00	29.932 
07:40	32.5	32.5	32.5	78	26.4	1	4	270	0.00	29.932 
07:45	32.5	32.5	32.5	78	26.4	1	3	225	0.00	29.937 
07:50	32.7	32.7	32.7	77	26.3	2	4	270	0.00	29.937 
07:55	32.7	32.7	32.7	77	26.3	2	3	270	0.00	29.937 
08:00	32.7	32.7	32.7	77	26.3	1	3	248	0.00	29.940 
08:05	32.7	32.7	32.7	77	26.3	1	3	248	0.00	29.940 
08:10	32.7	32.7	32.7	77	26.3	2	3	248	0.00	29.940 
08:15	32.8	32.8	32.8	77	26.4	1	3	248	0.00	29.943 
08:20	32.8	32.8	32.8	77	26.4	2	5	248	0.00	29.943 
08:25	32.8	32.8	32.8	76	26.1	2	4	248	0.00	29.943 
08:30	32.8	32.8	32.8	76	26.1	1	3	292	0.00	29.950 
08:35	32.9	32.9	32.9	76	26.2	2	4	270	0.00	29.950 
08:40	32.9	32.9	32.9	77	26.5	1	3	270	0.00	29.950 
08:45	32.9	32.9	32.9	76	26.2	2	4	270	0.00	29.955 
08:50	33.1	33.1	33.1	76	26.4	1	3	270	0.00	29.955 
08:55	33.1	33.1	33.1	76	26.4	2	4	270	0.00	29.955 
09:00	33.2	33.2	33.2	76	26.5	1	3	270	0.00	29.961 
09:05	33.2	33.2	33.2	76	26.5	1	3	248	0.00	29.961 
09:10	33.2	33.2	33.2	75	26.2	1	4	248	0.00	29.961 
09:15	33.5	33.5	33.5	76	26.8	1	3	270	0.00	29.968 
09:20	33.7	33.7	33.7	75	26.6	2	5	270	0.00	29.968 
09:25	33.7	33.7	33.7	74	26.3	2	4	270	0.00	29.968 
09:30	33.8	33.8	33.8	75	26.7	2	5	270	0.00	29.967 
09:35	34.0	34.0	34.0	75	26.9	1	4	270	0.00	29.967 
09:40	34.1	34.1	34.1	75	27.0	2	4	270	0.00	29.967 
09:45	34.1	34.1	34.1	75	27.0	2	4	270	0.00	29.967 
09:50	34.4	34.4	34.4	74	27.0	1	4	270	0.00	29.967 
09:55	34.9	34.9	34.9	75	27.8	1	3	270	0.00	29.967 
10:00	35.5	35.5	35.5	75	28.4	2	4	270	0.00	29.968 
10:05	35.8	35.8	35.8	73	28.0	2	5	270	0.00	29.968 
10:10	35.8	35.8	35.8	73	28.0	2	4	292	0.00	29.968 
10:15	35.9	35.9	35.9	73	28.1	2	4	270	0.00	29.976 
10:20	35.9	35.9	35.9	72	27.8	2	5	248	0.00	29.976 
10:25	36.0	36.0	36.0	72	27.9	2	4	270	0.00	29.976 
10:30	36.2	36.2	36.2	71	27.7	1	4	338	0.00	29.978 
10:35	36.3	36.3	36.3	71	27.8	1	5	315	0.00	29.978 
10:40	36.5	36.5	36.5	70	27.7	2	4	248	0.00	29.978 
10:45	36.5	36.5	36.5	70	27.7	2	4	270	0.00	29.980 
10:50	36.3	36.3	36.3	70	27.5	2	6	270	0.00	29.980 
10:55	36.6	36.6	36.6	71	28.1	2	5	292	0.00	29.980 
11:00	37.0	37.0	37.0	70	28.1	2	5	270	0.00	29.979 
11:05	37.3	37.3	37.3	69	28.1	2	5	270	0.00	29.979 
11:10	37.9	37.9	37.9	68	28.3	2	6	270	0.00	29.979 
11:15	37.9	37.9	37.9	68	28.3	2	6	270	0.00	29.979 
11:20	38.0	38.0	38.0	67	28.0	3	5	270	0.00	29.979 
11:25	38.3	38.3	38.3	67	28.3	3	6	270	0.00	29.979 
11:30	38.5	38.5	38.5	64	27.4	2	5	270	0.00	29.975 
11:35	38.3	38.3	38.3	65	27.6	2	5	270	0.00	29.975 
11:40	38.3	38.3	38.3	65	27.6	2	6	292	0.00	29.975 
11:45	38.3	38.3	38.3	65	27.6	2	6	270	0.00	29.982 
11:50	38.2	38.2	38.2	63	26.7	3	9	270	0.00	29.982 
11:55	38.0	38.0	38.0	62	26.2	2	5	338	0.00	29.982 
12:00	37.9	37.9	37.9	62	26.1	2	5	270	0.00	29.981 
12:05	37.9	37.9	37.9	61	25.7	3	6	270	0.00	29.981 
12:10	38.0	38.0	38.0	61	25.8	1	5	292	0.00	29.981 
12:15	38.2	38.2	38.2	62	26.3	1	4	338	0.00	29.973 
12:20	38.0	38.0	38.0	62	26.2	2	5	338	0.00	29.973 
12:25	37.9	37.9	37.9	62	26.1	2	6	270	0.00	29.973 
12:30	37.8	37.8	37.8	62	26.0	2	5	338	0.00	29.971 
12:35	37.9	37.9	37.9	63	26.4	1	3	315	0.00	29.971 
12:40	37.9	37.9	37.9	63	26.4	2	5	248	0.00	29.971 
12:45	37.9	37.9	37.9	62	26.1	1	4	270	0.00	29.969 
12:50	37.9	37.9	37.9	62	26.1	2	5	338	0.00	29.969 
12:55	37.9	37.9	37.9	62	26.1	2	4	270	0.00	29.969 
13:00	38.0	38.0	38.0	63	26.5	2	6	270	0.00	29.969 
13:05	38.0	38.0	38.0	62	26.2	1	4	338	0.00	29.969 
13:10	38.0	38.0	38.0	61	25.8	2	4	338	0.00	29.969 
13:15	37.9	37.9	37.9	61	25.7	1	4	292	0.00	29.968 
13:20	38.0	38.0	38.0	61	25.8	2	6	292	0.00	29.968 
13:25	38.0	38.0	38.0	61	25.8	1	4	292	0.00	29.968 
13:30	38.2	38.2	38.2	61	26.0	1	2	315	0.00	29.968 
13:35	38.2	38.2	38.2	62	26.3	1	3	338	0.00	29.968 
13:40	38.3	38.3	38.3	62	26.4	1	3	315	0.00	29.968 
13:45	38.3	38.3	38.3	62	26.4	1	4	270	0.00	29.964 
13:50	38.3	38.3	38.3	62	26.4	1	4	270	0.00	29.964 
13:55	38.3	38.3	38.3	63	26.8	1	9	270	0.00	29.964 
14:00	38.3	38.3	38.3	63	26.8	1	4	338	0.00	29.968 
14:05	38.3	38.3	38.3	63	26.8	1	3	270	0.00	29.968 
14:10	38.3	38.3	38.3	63	26.8	1	4	248	0.00	29.968 
14:15	38.3	38.3	38.3	62	26.4	2	3	270	0.00	29.971 
14:20	38.2	38.2	38.2	63	26.7	2	4	270	0.00	29.971 
14:25	38.2	38.2	38.2	62	26.3	1	4	270	0.00	29.971 
14:30	38.3	38.3	38.3	63	26.8	1	3	292	0.00	29.974 
14:35	38.3	38.3	38.3	63	26.8	2	4	248	0.00	29.974 
14:40	38.2	38.2	38.2	62	26.3	1	3	292	0.00	29.974 
14:45	38.3	38.3	38.3	62	26.4	2	4	270	0.00	29.974 
14:50	38.2	38.2	38.2	61	26.0	2	6	270	0.00	29.974 
14:55	38.0	38.0	38.0	62	26.2	2	5	248	0.00	29.974 
15:00	38.2	38.2	38.2	62	26.3	2	4	248	0.00	29.978 
15:05	38.2	38.2	38.2	61	26.0	2	4	270	0.00	29.978 
15:10	38.2	38.2	38.2	62	26.3	1	4	315	0.00	29.978 
15:15	38.3	38.3	38.3	61	26.0	1	4	292	0.00	29.976 
15:20	38.2	38.2	38.2	60	25.6	2	6	270	0.00	29.976 
15:25	38.2	38.2	38.2	61	26.0	1	3	292	0.00	29.976 
15:30	38.3	38.3	38.3	62	26.4	1	4	292	0.00	29.979 
15:35	38.0	38.0	38.0	64	26.9	2	4	270	0.00	29.979 
15:40	37.9	37.9	37.9	65	27.2	1	3	270	0.00	29.979 
15:45	37.8	37.8	37.8	65	27.1	2	4	270	0.00	29.980 
15:50	37.6	37.6	37.6	66	27.3	2	4	270	0.00	29.980 
15:55	37.6	37.6	37.6	66	27.3	2	5	270	0.00	29.980 
16:00	37.5	37.5	37.5	67	27.6	1	3	338	0.00	29.985 
16:05	37.5	37.5	37.5	67	27.6	1	3	338	0.00	29.985 
16:10	37.5	37.5	37.5	67	27.6	1	6	338	0.00	29.985 
16:15	37.3	37.3	37.3	67	27.4	1	3	225	0.00	29.987 
16:20	37.2	37.2	37.2	66	26.9	2	4	270	0.00	29.987 
16:25	37.2	37.2	37.2	66	26.9	1	3	270	0.00	29.987 
16:30	37.2	37.2	37.2	66	26.9	2	5	248	0.00	29.994 
16:35	37.2	37.2	37.2	66	26.9	1	3	270	0.00	29.994 
16:40	37.2	37.2	37.2	66	26.9	1	3	270	0.00	29.994 
16:45	37.2	37.2	37.2	66	26.9	0	2	270	0.00	29.996 
16:50	37.2	37.2	37.2	66	26.9	1	3	248	0.00	29.996 
16:55	37.2	37.2	37.2	65	26.5	2	4	270	0.00	29.996 
17:00	37.0	37.0	37.0	66	26.7	1	3	248	0.00	29.999 
17:05	37.0	37.0	37.0	65	26.3	2	5	270	0.00	29.999 
17:10	37.0	37.0	37.0	65	26.3	2	4	270	0.00	29.999 
17:15	37.0	37.0	37.0	65	26.3	1	5	248	0.00	30.003 
17:20	37.0	37.0	37.0	65	26.3	1	3	248	0.00	30.003 
17:25	37.0	37.0	37.0	64	26.0	2	4	270	0.00	30.003 
17:30	37.0	37.0	37.0	64	26.0	1	3	270	0.00	30.003 
17:35	36.9	36.9	36.9	65	26.3	1	2	338	0.00	30.003 
17:40	36.9	36.9	36.9	65	26.3	0	1	338	0.00	30.003 
17:45	36.9	36.9	36.9	65	26.3	1	3	248	0.00	30.001 
17:50	36.9	36.9	36.9	65	26.3	0	2	248	0.00	30.001 
17:55	36.8	36.8	36.8	65	26.2	0	1	248	0.00	30.001 
18:00	36.6	36.6	36.6	65	26.0	0	2	248	0.00	30.007 
18:05	36.5	36.5	36.5	65	25.9	1	3	248	0.00	30.007 
18:10	36.3	36.3	36.3	65	25.7	0	1	248	0.00	30.007 
18:15	36.2	36.2	36.2	65	25.6	0	1	248	0.00	30.004 
18:20	36.0	36.0	36.0	66	25.8	0	2	248	0.00	30.004 
18:25	35.9	35.9	35.9	65	25.3	0	3	248	0.00	30.004 
18:30	35.8	35.8	35.8	66	25.6	0	1	248	0.00	30.006 
18:35	35.8	35.8	35.8	66	25.6	0	2	248	0.00	30.006 
18:40	35.5	35.5	35.5	66	25.3	0	1	248	0.00	30.006 
18:45	35.3	35.3	35.3	66	25.1	0	1	248	0.00	30.012 
18:50	35.2	35.2	35.2	67	25.4	0	1	248	0.00	30.012 
18:55	35.0	35.0	35.0	67	25.2	0	1	248	0.00	30.012 
19:00	34.9	34.9	34.9	67	25.1	0	1	248	0.00	30.021 
19:05	34.9	34.9	34.9	68	25.4	0	2	248	0.00	30.021 
19:10	34.9	34.9	34.9	68	25.4	0	1	248	0.00	30.021 
19:15	34.9	34.9	34.9	69	25.8	0	2	248	0.00	30.021 
19:20	34.9	34.9	34.9	69	25.8	0	2	248	0.00	30.021 
19:25	34.9	34.9	34.9	69	25.8	0	2	248	0.00	30.021 
19:30	34.7	34.7	34.7	69	25.6	0	2	248	0.00	30.022 
19:35	34.4	34.4	34.4	69	25.3	0	0	---	0.00	30.022 
19:40	34.3	34.3	34.3	70	25.5	0	1	248	0.00	30.022 
19:45	34.1	34.1	34.1	70	25.4	0	0	---	0.00	30.030 
19:50	33.8	33.8	33.8	70	25.1	0	0	---	0.00	30.030 
19:55	33.4	33.4	33.4	71	25.0	0	0	---	0.00	30.030 
20:00	33.1	33.1	33.1	71	24.7	0	0	---	0.00	30.035 
20:05	32.8	32.8	32.8	72	24.8	0	0	---	0.00	30.035 
20:10	32.5	32.5	32.5	73	24.8	0	0	---	0.00	30.035 
20:15	32.1	32.1	32.1	74	24.8	0	0	---	0.00	30.038 
20:20	31.8	31.8	31.8	75	24.8	0	0	---	0.00	30.038 
20:25	31.5	31.5	31.5	76	24.8	0	0	---	0.00	30.038 
20:30	31.2	31.2	31.2	76	24.5	0	0	---	0.00	30.039 
20:35	30.9	30.9	30.9	77	24.6	0	0	---	0.00	30.039 
20:40	30.6	30.6	30.6	78	24.6	0	0	---	0.00	30.039 
20:45	30.3	30.3	30.3	78	24.3	0	0	---	0.00	30.041 
20:50	30.0	30.0	30.0	79	24.3	0	0	---	0.00	30.041 
20:55	29.7	29.7	29.7	79	24.0	0	0	---	0.00	30.041 
21:00	29.5	29.5	29.5	80	24.1	0	0	---	0.00	30.044 
21:05	29.3	29.3	29.3	81	24.2	0	0	---	0.00	30.044 
21:10	29.1	29.1	29.1	82	24.3	0	0	---	0.00	30.044 
21:15	29.0	29.0	29.0	82	24.2	0	0	---	0.00	30.053 
21:20	29.0	29.0	29.0	83	24.5	0	0	---	0.00	30.053 
21:25	28.8	28.8	28.8	83	24.3	0	0	---	0.00	30.053 
21:30	28.5	28.5	28.5	83	24.0	0	0	---	0.00	30.053 
21:35	28.4	28.4	28.4	83	23.9	0	0	---	0.00	30.053 
21:40	28.2	28.2	28.2	84	24.0	0	0	---	0.00	30.053 
21:45	28.1	28.1	28.1	84	23.9	0	0	---	0.00	30.049 
21:50	27.9	27.9	27.9	84	23.7	0	0	---	0.00	30.049 
21:55	27.9	27.9	27.9	85	24.0	0	0	---	0.00	30.049 
22:00	27.8	27.8	27.8	85	23.9	0	0	---	0.00	30.052 
22:05	27.6	27.6	27.6	85	23.7	0	0	---	0.00	30.052 
22:10	27.6	27.6	27.6	86	24.0	0	0	---	0.00	30.052 
22:15	27.6	27.6	27.6	86	24.0	0	0	---	0.00	30.050 
22:20	27.6	27.6	27.6	86	24.0	0	0	---	0.00	30.050 
22:25	27.6	27.6	27.6	87	24.2	0	0	---	0.00	30.050 
22:30	27.6	27.6	27.6	87	24.2	0	0	---	0.00	30.049 
22:35	27.6	27.6	27.6	87	24.2	0	0	---	0.00	30.049 
22:40	27.6	27.6	27.6	88	24.5	0	1	248	0.00	30.049 
22:45	27.8	27.8	27.8	88	24.7	0	0	---	0.00	30.052 
22:50	27.9	27.9	27.9	88	24.8	0	0	---	0.00	30.052 
22:55	28.1	28.1	28.1	88	25.0	0	0	---	0.00	30.052 
23:00	28.1	28.1	28.1	88	25.0	0	0	---	0.00	30.056 
23:05	28.2	28.2	28.2	88	25.1	0	0	---	0.00	30.056 
23:10	28.1	28.1	28.1	87	24.7	0	0	---	0.00	30.056 
23:15	28.1	28.1	28.1	87	24.7	0	0	---	0.00	30.053 
23:20	27.9	27.9	27.9	87	24.5	0	0	---	0.00	30.053 
23:25	27.8	27.8	27.8	87	24.4	0	0	---	0.00	30.053 
23:30	27.8	27.8	27.8	87	24.4	0	0	---	0.00	30.046 
23:35	27.6	27.6	27.6	87	24.2	0	0	---	0.00	30.046 
23:40	27.5	27.5	27.5	87	24.1	0	0	---	0.00	30.046 
23:45	27.3	27.3	27.3	88	24.2	0	0	---	0.00	30.039 
23:50	27.2	27.2	27.2	88	24.1	0	0	---	0.00	30.039 
23:55	27.2	27.2	27.2	88	24.1	0	0	---	0.00	30.039 

CoCoRaHS
IN-AL-39
A2 Web Hosting
Creative Commons License
GoDaddy
search engine by freefind advanced

loaded 2018-11-16 00:44:30 • last modified 2010-11-18 10:43:29
Privacy PolicyDisclaimer
• wx.awcolley.com is powered by PmWiki v.2002016 •
• all content (unless otherwise noted) © 2018 A W Colley